CYBU weather

Nipawin Airport
Nipawin, Saskatchewan, Canada

Public forecast

Using degrees Celsius for public forecast. Weather courtesy of forecast.io.

Current aviation weather report (METAR) for Nipawin Airport

Retrieved 2020/07/04 02:00 UTC (56 minutes ago):

CYBU 040200Z AUTO 18004KT CLR 23/17 A2997 RMK WX MISG VIS MISG PCPN MISG SLP155 DENSITY ALT 2300FT

Closest aviation forecast (TAF) to Nipawin Airport

Closest forecast is Prince Albert Glass Field, 60.2 nm (111.5 km) W. Retrieved 2020-07-04 01:00 UTC (2 hours ago):

TAF CYPA 040038Z 0401/0404 22010KT P6SM FEW250 BECMG 0403/0404 VRB03KT RMK NXT FCST WILL BE ISSUED AT 041345Z